Airfield :
LOGIN :

Register | Disclaimer

   EN    FR    IT 

 










Legend :    VFR   Marginal VFR   IFR   Intensive IFR   Very Intensive IFR
Visi :
Ceiling :
>= 8 km
>= 3000ft
5 to 8 km
1000 to 3000 ft
1500m to 5 km
500 to 1000 ft
800 to 1500m
200 to 500 ft
< 800m
< 200 ft
Symbols :   Thunderstorms  Fog  Heavy snow  Heavy precipitations  Wind > 20 kt
SIGMETs :     Misc.  Thunderstorms  Icing  Turbulence  Mountain Waves  Volcanic Ashes






- Airport Elevation : 645 ft
- IATA code : DLE


LFGJ - Dole Tavaux

CURRENT METAR :
  • 190730Z AUTO 34007KT CAVOK 22/17 Q1013 NOSIG

EXPIRED METARs :
  • 190700Z AUTO 35008KT CAVOK 21/17 Q1013 TEMPO FEW050TCU BKN080
  • 190630Z AUTO 35008KT CAVOK 20/17 Q1013 TEMPO FEW050TCU BKN080
  • 190600Z AUTO 31006KT CAVOK 20/17 Q1012 TEMPO FEW050TCU BKN080
  • 190530Z AUTO 32005KT CAVOK 19/16 Q1012 TEMPO FEW050TCU BKN080
  • 190500Z AUTO 30004KT 240V340 CAVOK 19/17 Q1012
  • 190430Z AUTO VRB03KT CAVOK 18/16 Q1011
  • 190400Z AUTO VRB03KT 9999 ///TCU 18/16 Q1011
  • 190330Z AUTO 04003KT 350V090 CAVOK 18/16 Q1011
  • 190300Z AUTO VRB01KT CAVOK 19/16 Q1011

TAF TAF LFGJ
Valid from the 19 at 06:00 until the 19 at 15:00 UTC


190500Z 1906/1915 VRB04KT CAVOK
PROB30
TEMPO 1906/1908 FEW050TCU BKN080
BECMG 1912/1915 34006KT



MET'MAP, your aeronautical weather chart ! - Copyright ORBIFLY December 2007 - Disclaimer

ORBIFLY MET'MAP TEAM :

Programming & Development : Alexandra Zaïnal
Original concept : Baudouin d'Aumeries
Technical & hardware support : Manuel Goepfert
Assistance : Marc-Olivier Méhu




SOURCES & CREDITS :

   NOAA